Strona główna
METAR-TAF:

METAR-TAF

Lotnisko :

Cleveland, Ohio, Stany Zjednoczone

Szerokość geograficzna: 41-34N, Długość geograficzna: 081-29W, wysokość: 268 m

Aktualna obserwacja pogody

Raport powstał 12 minut temu, godzina 08:35 UTC
Wiatr 9 kt od południe
Temperatura 22°C
Wilgotność 73%
Ciśnienie 1017 hPa
Widzialność: 16.1 km
Rozproszone chmury na wysokości 8000 ft
Zachmurzenie całkowite na wysokości 11000 ft

METAR: KCGF 280835Z AUTO 19009KT 10SM SCT080 OVC110 22/17 A3002 RMK AO2 T02200167

czas: 04:47 (08:47 UTC)


TAF: brakujący

Obserwacja i prognoza pogody dla ponad 4000 lotnisk (raport METAR i TAF).

Dostępne stacje oznaczono żółtymi i czerwonymi punktami na mapie.

Najedź kursorem aby zobaczyć nazwę stacji.

Kliknij aby zobaczyć obserwacje i prognozy pogody.

Aby zmienić mapę: kliknij na zielony przycisk z czarnym krzyżykiem, aby powiększyć; na zielony przycisk z myślnikiem, aby pomniejszyć; na zielone strzałki, aby przejść do map sąsiednich.


METAR-TAF: